Terminal Aerodrome Forecast
Issued by NWS Bismarck, ND

Home | Current Version | Previous Version | Graphics & Text | Print | Product List | Glossary On
Versions: 1 2 3 4 5 6 7 8 9 10 11 12 13 14 15 16 17 18 19 20 21 22 23 24 25 26 27
000
FTUS43 KBIS 300444 AAB
TAFISN
TAF AMD
KISN 300444Z 3005/3024 02015KT 1 1/2SM FU BKN030 BKN100
     FM301200 01006KT 3SM -SHRA FU BKN070 OVC120
     FM301600 14010KT P6SM VCSH BKN050 OVC080
     FM302300 10008KT P6SM -SHRA VCTS BKN050 OVC080CB=

USA.gov is the U.S. government's official web portal to all federal, state and local government web resources and services.